sensor_id;sensor_type;location;lat;lon;timestamp;pressure;altitude;pressure_sealevel;temperature;humidity
18755;BME280;35061;47.664;9.166;2022-11-09T00:01:01;101370.60;;;8.35;96.99
18755;BME280;35061;47.664;9.166;2022-11-09T00:03:29;101365.50;;;8.30;98.67
18755;BME280;35061;47.664;9.166;2022-11-09T00:05:58;101377.50;;;8.24;97.49
18755;BME280;35061;47.664;9.166;2022-11-09T00:08:26;101378.09;;;8.19;97.95
18755;BME280;35061;47.664;9.166;2022-11-09T00:10:54;101377.27;;;8.19;97.57
18755;BME280;35061;47.664;9.166;2022-11-09T00:13:22;101380.02;;;8.22;97.45
18755;BME280;35061;47.664;9.166;2022-11-09T00:15:50;101377.59;;;8.21;97.16
18755;BME280;35061;47.664;9.166;2022-11-09T00:18:17;101376.52;;;8.18;97.06
18755;BME280;35061;47.664;9.166;2022-11-09T00:20:45;101379.36;;;8.18;96.89
18755;BME280;35061;47.664;9.166;2022-11-09T00:23:15;101384.27;;;8.18;97.50
18755;BME280;35061;47.664;9.166;2022-11-09T00:25:43;101371.61;;;8.06;98.68
18755;BME280;35061;47.664;9.166;2022-11-09T00:28:11;101362.42;;;8.02;98.93
18755;BME280;35061;47.664;9.166;2022-11-09T00:30:40;101377.92;;;8.01;98.08
18755;BME280;35061;47.664;9.166;2022-11-09T00:33:07;101365.73;;;8.00;97.84
18755;BME280;35061;47.664;9.166;2022-11-09T00:35:37;101362.52;;;7.98;98.03
18755;BME280;35061;47.664;9.166;2022-11-09T00:38:06;101370.96;;;8.02;97.75
18755;BME280;35061;47.664;9.166;2022-11-09T00:40:33;101364.26;;;7.95;97.85
18755;BME280;35061;47.664;9.166;2022-11-09T00:43:01;101373.15;;;7.98;97.94
18755;BME280;35061;47.664;9.166;2022-11-09T00:45:29;101373.84;;;8.02;97.80
18755;BME280;35061;47.664;9.166;2022-11-09T00:47:56;101378.25;;;8.03;97.68
18755;BME280;35061;47.664;9.166;2022-11-09T00:50:24;101374.26;;;8.00;97.27
18755;BME280;35061;47.664;9.166;2022-11-09T00:52:52;101371.41;;;8.00;97.29
18755;BME280;35061;47.664;9.166;2022-11-09T00:55:19;101373.02;;;8.01;97.46
18755;BME280;35061;47.664;9.166;2022-11-09T00:57:51;101361.80;;;8.07;97.40
18755;BME280;35061;47.664;9.166;2022-11-09T01:00:21;101362.62;;;8.07;96.84
18755;BME280;35061;47.664;9.166;2022-11-09T01:02:49;101355.20;;;8.10;97.10
18755;BME280;35061;47.664;9.166;2022-11-09T01:05:18;101367.85;;;8.09;96.63
18755;BME280;35061;47.664;9.166;2022-11-09T01:07:46;101369.59;;;8.06;96.65
18755;BME280;35061;47.664;9.166;2022-11-09T01:10:13;101377.01;;;8.04;96.47
18755;BME280;35061;47.664;9.166;2022-11-09T01:12:41;101375.30;;;7.93;97.49
18755;BME280;35061;47.664;9.166;2022-11-09T01:15:09;101361.05;;;7.93;97.04
18755;BME280;35061;47.664;9.166;2022-11-09T01:17:37;101369.29;;;7.91;97.05
18755;BME280;35061;47.664;9.166;2022-11-09T01:20:05;101363.24;;;7.89;96.91
18755;BME280;35061;47.664;9.166;2022-11-09T01:22:32;101353.76;;;7.92;97.19
18755;BME280;35061;47.664;9.166;2022-11-09T01:25:00;101357.42;;;7.93;96.77
18755;BME280;35061;47.664;9.166;2022-11-09T01:27:28;101353.76;;;7.92;96.79
18755;BME280;35061;47.664;9.166;2022-11-09T01:29:55;101344.77;;;7.94;96.76
18755;BME280;35061;47.664;9.166;2022-11-09T01:32:23;101339.83;;;7.94;96.72
18755;BME280;35061;47.664;9.166;2022-11-09T01:34:51;101339.05;;;7.94;96.70
18755;BME280;35061;47.664;9.166;2022-11-09T01:37:19;101352.84;;;7.95;97.11
18755;BME280;35061;47.664;9.166;2022-11-09T01:39:46;101346.80;;;7.93;96.50
18755;BME280;35061;47.664;9.166;2022-11-09T01:42:21;101345.65;;;7.91;96.42
18755;BME280;35061;47.664;9.166;2022-11-09T01:45:28;101356.87;;;7.85;96.66
18755;BME280;35061;47.664;9.166;2022-11-09T01:50:49;101350.29;;;7.75;96.56
18755;BME280;35061;47.664;9.166;2022-11-09T01:53:25;101346.89;;;7.67;96.98
18755;BME280;35061;47.664;9.166;2022-11-09T01:55:56;101349.05;;;7.63;96.57
18755;BME280;35061;47.664;9.166;2022-11-09T01:58:29;101347.16;;;7.60;96.57
18755;BME280;35061;47.664;9.166;2022-11-09T02:00:58;101359.45;;;7.57;96.49
18755;BME280;35061;47.664;9.166;2022-11-09T02:03:31;101358.70;;;7.44;97.01
18755;BME280;35061;47.664;9.166;2022-11-09T02:06:04;101361.87;;;7.46;96.95
18755;BME280;35061;47.664;9.166;2022-11-09T02:08:33;101361.09;;;7.45;96.57
18755;BME280;35061;47.664;9.166;2022-11-09T02:11:12;101355.49;;;7.42;96.69
18755;BME280;35061;47.664;9.166;2022-11-09T02:13:46;101348.66;;;7.39;96.60
18755;BME280;35061;47.664;9.166;2022-11-09T02:16:16;101351.53;;;7.39;97.11
18755;BME280;35061;47.664;9.166;2022-11-09T02:18:50;101344.21;;;7.38;96.82
18755;BME280;35061;47.664;9.166;2022-11-09T02:21:19;101353.23;;;7.36;96.86
18755;BME280;35061;47.664;9.166;2022-11-09T02:23:48;101346.04;;;7.32;96.97
18755;BME280;35061;47.664;9.166;2022-11-09T02:26:37;101359.64;;;7.28;97.62
18755;BME280;35061;47.664;9.166;2022-11-09T02:29:08;101351.08;;;7.28;97.66
18755;BME280;35061;47.664;9.166;2022-11-09T02:31:40;101359.74;;;7.24;98.25
18755;BME280;35061;47.664;9.166;2022-11-09T02:34:12;101361.21;;;7.29;97.78
18755;BME280;35061;47.664;9.166;2022-11-09T02:36:40;101354.28;;;7.30;97.57
18755;BME280;35061;47.664;9.166;2022-11-09T02:39:10;101347.64;;;7.33;97.39
18755;BME280;35061;47.664;9.166;2022-11-09T02:41:49;101346.92;;;7.42;98.04
18755;BME280;35061;47.664;9.166;2022-11-09T02:44:18;101342.25;;;7.48;97.60
18755;BME280;35061;47.664;9.166;2022-11-09T02:46:46;101349.12;;;7.50;97.53
18755;BME280;35061;47.664;9.166;2022-11-09T02:49:14;101349.90;;;7.51;97.09
18755;BME280;35061;47.664;9.166;2022-11-09T02:51:41;101350.69;;;7.51;97.04
18755;BME280;35061;47.664;9.166;2022-11-09T02:54:09;101338.26;;;7.58;97.25
18755;BME280;35061;47.664;9.166;2022-11-09T02:56:37;101341.76;;;7.62;97.23
18755;BME280;35061;47.664;9.166;2022-11-09T02:59:04;101328.55;;;7.68;97.03
18755;BME280;35061;47.664;9.166;2022-11-09T03:01:32;101334.89;;;7.73;96.95
18755;BME280;35061;47.664;9.166;2022-11-09T03:04:00;101334.01;;;7.76;96.69
18755;BME280;35061;47.664;9.166;2022-11-09T03:06:28;101329.89;;;7.77;96.55
18755;BME280;35061;47.664;9.166;2022-11-09T03:09:06;101318.80;;;7.79;96.43
18755;BME280;35061;47.664;9.166;2022-11-09T03:11:37;101325.77;;;7.78;96.43
18755;BME280;35061;47.664;9.166;2022-11-09T03:14:05;101323.25;;;7.80;96.36
18755;BME280;35061;47.664;9.166;2022-11-09T03:16:33;101327.24;;;7.82;96.67
18755;BME280;35061;47.664;9.166;2022-11-09T03:19:00;101326.20;;;7.89;96.46
18755;BME280;35061;47.664;9.166;2022-11-09T03:21:28;101321.26;;;7.90;96.21
18755;BME280;35061;47.664;9.166;2022-11-09T03:23:56;101318.90;;;7.88;96.04
18755;BME280;35061;47.664;9.166;2022-11-09T03:26:24;101330.97;;;7.92;96.35
18755;BME280;35061;47.664;9.166;2022-11-09T03:28:51;101323.41;;;7.99;96.19
18755;BME280;35061;47.664;9.166;2022-11-09T03:31:19;101335.15;;;8.01;95.98
18755;BME280;35061;47.664;9.166;2022-11-09T03:33:46;101332.63;;;8.03;95.94
18755;BME280;35061;47.664;9.166;2022-11-09T03:36:14;101339.80;;;8.07;96.24
18755;BME280;35061;47.664;9.166;2022-11-09T03:38:42;101337.73;;;8.08;95.99
18755;BME280;35061;47.664;9.166;2022-11-09T03:41:10;101350.20;;;8.01;96.42
18755;BME280;35061;47.664;9.166;2022-11-09T03:43:37;101346.89;;;8.03;96.35
18755;BME280;35061;47.664;9.166;2022-11-09T03:46:05;101337.73;;;8.08;96.53
18755;BME280;35061;47.664;9.166;2022-11-09T03:48:32;101344.57;;;8.10;96.29
18755;BME280;35061;47.664;9.166;2022-11-09T03:51:00;101349.48;;;8.10;96.39
18755;BME280;35061;47.664;9.166;2022-11-09T03:53:28;101351.86;;;8.12;96.38
18755;BME280;35061;47.664;9.166;2022-11-09T03:55:56;101352.26;;;8.01;97.26
18755;BME280;35061;47.664;9.166;2022-11-09T03:58:24;101360.69;;;8.04;96.82
18755;BME280;35061;47.664;9.166;2022-11-09T04:00:51;101366.84;;;8.03;96.97
18755;BME280;35061;47.664;9.166;2022-11-09T04:03:19;101370.14;;;8.01;97.04
18755;BME280;35061;47.664;9.166;2022-11-09T04:05:47;101375.54;;;7.99;97.03
18755;BME280;35061;47.664;9.166;2022-11-09T04:08:15;101384.56;;;7.98;96.77
18755;BME280;35061;47.664;9.166;2022-11-09T04:10:43;101387.21;;;7.92;96.96
18755;BME280;35061;47.664;9.166;2022-11-09T04:13:10;101387.67;;;7.90;96.86
18755;BME280;35061;47.664;9.166;2022-11-09T04:15:38;101395.42;;;7.90;97.03
18755;BME280;35061;47.664;9.166;2022-11-09T04:18:06;101404.45;;;7.88;96.94
18755;BME280;35061;47.664;9.166;2022-11-09T04:20:33;101399.64;;;7.85;96.94
18755;BME280;35061;47.664;9.166;2022-11-09T04:23:03;101417.23;;;7.84;97.42
18755;BME280;35061;47.664;9.166;2022-11-09T04:25:33;101431.62;;;7.80;97.49
18755;BME280;35061;47.664;9.166;2022-11-09T04:28:02;101421.91;;;7.77;97.41
18755;BME280;35061;47.664;9.166;2022-11-09T04:30:33;101419.87;;;7.78;98.33
18755;BME280;35061;47.664;9.166;2022-11-09T04:33:01;101427.50;;;7.81;97.81
18755;BME280;35061;47.664;9.166;2022-11-09T04:35:31;101435.48;;;7.86;97.86
18755;BME280;35061;47.664;9.166;2022-11-09T04:38:03;101432.50;;;7.90;97.58
18755;BME280;35061;47.664;9.166;2022-11-09T04:40:32;101436.91;;;7.91;97.47
18755;BME280;35061;47.664;9.166;2022-11-09T04:43:03;101445.98;;;7.89;98.05
18755;BME280;35061;47.664;9.166;2022-11-09T04:45:32;101440.15;;;7.93;97.90
18755;BME280;35061;47.664;9.166;2022-11-09T04:48:03;101449.70;;;7.99;97.95
18755;BME280;35061;47.664;9.166;2022-11-09T04:50:31;101452.77;;;8.05;97.99
18755;BME280;35061;47.664;9.166;2022-11-09T04:53:12;101442.05;;;8.09;98.04
18755;BME280;35061;47.664;9.166;2022-11-09T04:55:42;101439.07;;;8.13;98.21
18755;BME280;35061;47.664;9.166;2022-11-09T04:58:09;101435.73;;;8.14;98.43
18755;BME280;35061;47.664;9.166;2022-11-09T05:00:37;101448.30;;;8.17;98.71
18755;BME280;35061;47.664;9.166;2022-11-09T05:03:06;101441.79;;;8.16;98.66
18755;BME280;35061;47.664;9.166;2022-11-09T05:05:35;101439.27;;;8.18;98.28
18755;BME280;35061;47.664;9.166;2022-11-09T05:08:03;101430.93;;;8.24;98.29
18755;BME280;35061;47.664;9.166;2022-11-09T05:10:32;101439.92;;;8.22;98.45
18755;BME280;35061;47.664;9.166;2022-11-09T05:13:05;101436.49;;;8.28;98.48
18755;BME280;35061;47.664;9.166;2022-11-09T05:15:34;101443.52;;;8.36;98.68
18755;BME280;35061;47.664;9.166;2022-11-09T05:18:03;101443.29;;;8.43;98.30
18755;BME280;35061;47.664;9.166;2022-11-09T05:20:31;101452.84;;;8.49;98.21
18755;BME280;35061;47.664;9.166;2022-11-09T05:22:59;101452.61;;;8.57;97.95
18755;BME280;35061;47.664;9.166;2022-11-09T05:25:46;101458.98;;;8.61;97.83
18755;BME280;35061;47.664;9.166;2022-11-09T05:28:14;101454.73;;;8.65;97.81
18755;BME280;35061;47.664;9.166;2022-11-09T05:30:41;101456.05;;;8.74;97.70
18755;BME280;35061;47.664;9.166;2022-11-09T05:33:09;101457.52;;;8.78;97.57
18755;BME280;35061;47.664;9.166;2022-11-09T05:35:37;101456.60;;;8.82;97.43
18755;BME280;35061;47.664;9.166;2022-11-09T05:38:04;101467.42;;;8.87;97.41
18755;BME280;35061;47.664;9.166;2022-11-09T05:40:32;101475.86;;;8.90;97.17
18755;BME280;35061;47.664;9.166;2022-11-09T05:43:00;101465.56;;;8.93;97.00
18755;BME280;35061;47.664;9.166;2022-11-09T05:45:28;101460.33;;;8.91;96.86
18755;BME280;35061;47.664;9.166;2022-11-09T05:48:15;101464.77;;;8.92;97.00
18755;BME280;35061;47.664;9.166;2022-11-09T05:50:43;101460.95;;;8.96;96.95
18755;BME280;35061;47.664;9.166;2022-11-09T05:53:11;101464.32;;;8.94;96.93
18755;BME280;35061;47.664;9.166;2022-11-09T05:55:39;101466.54;;;8.99;97.11
18755;BME280;35061;47.664;9.166;2022-11-09T05:58:07;101464.02;;;9.01;96.93
18755;BME280;35061;47.664;9.166;2022-11-09T06:00:36;101474.03;;;9.06;96.95
18755;BME280;35061;47.664;9.166;2022-11-09T06:03:06;101478.18;;;9.05;96.86
18755;BME280;35061;47.664;9.166;2022-11-09T06:05:39;101463.44;;;9.06;96.77
18755;BME280;35061;47.664;9.166;2022-11-09T06:08:09;101463.89;;;9.05;96.78
18755;BME280;35061;47.664;9.166;2022-11-09T06:10:38;101457.71;;;9.06;97.13
18755;BME280;35061;47.664;9.166;2022-11-09T06:13:06;101460.88;;;9.08;97.32
18755;BME280;35061;47.664;9.166;2022-11-09T06:15:34;101469.78;;;9.11;97.14
18755;BME280;35061;47.664;9.166;2022-11-09T06:18:01;101479.95;;;9.12;97.30
18755;BME280;35061;47.664;9.166;2022-11-09T06:20:29;101489.34;;;9.12;97.29
18755;BME280;35061;47.664;9.166;2022-11-09T06:23:00;101493.32;;;9.15;97.45
18755;BME280;35061;47.664;9.166;2022-11-09T06:25:31;101498.88;;;9.18;97.36
18755;BME280;35061;47.664;9.166;2022-11-09T06:27:59;101502.55;;;9.19;97.30
18755;BME280;35061;47.664;9.166;2022-11-09T06:30:27;101504.15;;;9.20;97.38
18755;BME280;35061;47.664;9.166;2022-11-09T06:33:01;101504.27;;;9.16;97.18
18755;BME280;35061;47.664;9.166;2022-11-09T06:35:29;101517.45;;;9.14;97.31
18755;BME280;35061;47.664;9.166;2022-11-09T06:37:58;101516.64;;;9.13;97.55
18755;BME280;35061;47.664;9.166;2022-11-09T06:40:27;101517.45;;;9.14;97.75
18755;BME280;35061;47.664;9.166;2022-11-09T06:42:58;101508.89;;;9.14;97.81
18755;BME280;35061;47.664;9.166;2022-11-09T06:45:27;101508.53;;;9.12;97.89
18755;BME280;35061;47.664;9.166;2022-11-09T06:47:56;101510.59;;;9.11;98.39
18755;BME280;35061;47.664;9.166;2022-11-09T06:50:26;101506.60;;;9.08;98.04
18755;BME280;35061;47.664;9.166;2022-11-09T06:52:55;101515.98;;;9.09;98.09
18755;BME280;35061;47.664;9.166;2022-11-09T06:55:25;101520.07;;;9.08;98.17
18755;BME280;35061;47.664;9.166;2022-11-09T06:57:54;101525.34;;;9.10;98.76
18755;BME280;35061;47.664;9.166;2022-11-09T07:00:22;101528.09;;;9.13;99.02
18755;BME280;35061;47.664;9.166;2022-11-09T07:02:50;101528.87;;;9.14;98.44
18755;BME280;35061;47.664;9.166;2022-11-09T07:05:19;101535.70;;;9.16;98.54
18755;BME280;35061;47.664;9.166;2022-11-09T07:07:46;101531.95;;;9.19;98.71
18755;BME280;35061;47.664;9.166;2022-11-09T07:10:15;101537.50;;;9.23;98.91
18755;BME280;35061;47.664;9.166;2022-11-09T07:12:42;101527.20;;;9.26;98.98
18755;BME280;35061;47.664;9.166;2022-11-09T07:15:11;101532.76;;;9.29;98.78
18755;BME280;35061;47.664;9.166;2022-11-09T07:17:39;101531.84;;;9.32;98.77
18755;BME280;35061;47.664;9.166;2022-11-09T07:20:08;101539.01;;;9.37;98.76
18755;BME280;35061;47.664;9.166;2022-11-09T07:22:36;101534.43;;;9.40;98.98
18755;BME280;35061;47.664;9.166;2022-11-09T07:25:09;101544.01;;;9.46;98.60
18755;BME280;35061;47.664;9.166;2022-11-09T07:27:37;101529.06;;;9.51;98.80
18755;BME280;35061;47.664;9.166;2022-11-09T07:30:05;101541.03;;;9.59;99.17
18755;BME280;35061;47.664;9.166;2022-11-09T07:32:34;101538.22;;;9.68;99.39
18755;BME280;35061;47.664;9.166;2022-11-09T07:35:22;101542.83;;;9.75;99.48
18755;BME280;35061;47.664;9.166;2022-11-09T07:37:50;101539.07;;;9.78;99.33
18755;BME280;35061;47.664;9.166;2022-11-09T07:40:18;101547.48;;;9.82;99.14
18755;BME280;35061;47.664;9.166;2022-11-09T07:42:46;101552.28;;;9.85;99.11
18755;BME280;35061;47.664;9.166;2022-11-09T07:45:13;101543.06;;;9.90;99.26
18755;BME280;35061;47.664;9.166;2022-11-09T07:47:41;101550.91;;;9.99;99.19
18755;BME280;35061;47.664;9.166;2022-11-09T07:50:09;101547.73;;;10.06;98.93
18755;BME280;35061;47.664;9.166;2022-11-09T07:52:36;101554.30;;;10.16;98.96
18755;BME280;35061;47.664;9.166;2022-11-09T07:55:04;101546.66;;;10.22;98.95
18755;BME280;35061;47.664;9.166;2022-11-09T07:57:32;101563.07;;;10.31;99.06
18755;BME280;35061;47.664;9.166;2022-11-09T08:00:00;101559.12;;;10.38;99.03
18755;BME280;35061;47.664;9.166;2022-11-09T08:02:27;101566.31;;;10.42;98.93
18755;BME280;35061;47.664;9.166;2022-11-09T08:04:55;101571.87;;;10.46;98.85
18755;BME280;35061;47.664;9.166;2022-11-09T08:07:23;101578.70;;;10.49;98.67
18755;BME280;35061;47.664;9.166;2022-11-09T08:09:51;101577.43;;;10.50;98.31
18755;BME280;35061;47.664;9.166;2022-11-09T08:12:20;101581.91;;;10.51;98.32
18755;BME280;35061;47.664;9.166;2022-11-09T08:14:47;101577.13;;;10.47;98.43
18755;BME280;35061;47.664;9.166;2022-11-09T08:17:15;101583.97;;;10.50;98.54
18755;BME280;35061;47.664;9.166;2022-11-09T08:19:43;101577.13;;;10.47;98.43
18755;BME280;35061;47.664;9.166;2022-11-09T08:22:10;101582.86;;;10.47;98.87
18755;BME280;35061;47.664;9.166;2022-11-09T08:24:38;101583.02;;;10.53;99.18
18755;BME280;35061;47.664;9.166;2022-11-09T08:27:05;101576.52;;;10.53;99.51
18755;BME280;35061;47.664;9.166;2022-11-09T08:29:33;101569.19;;;10.52;100.00
18755;BME280;35061;47.664;9.166;2022-11-09T08:32:01;101568.24;;;10.64;99.77
18755;BME280;35061;47.664;9.166;2022-11-09T08:34:28;101578.12;;;10.72;100.00
18755;BME280;35061;47.664;9.166;2022-11-09T08:36:59;101580.96;;;10.82;100.00
18755;BME280;35061;47.664;9.166;2022-11-09T08:39:27;101570.17;;;10.86;100.00
18755;BME280;35061;47.664;9.166;2022-11-09T08:41:54;101573.50;;;10.94;100.00
18755;BME280;35061;47.664;9.166;2022-11-09T08:44:22;101576.05;;;11.01;99.94
18755;BME280;35061;47.664;9.166;2022-11-09T08:46:50;101573.05;;;11.05;99.73
18755;BME280;35061;47.664;9.166;2022-11-09T08:49:18;101575.23;;;11.10;99.76
18755;BME280;35061;47.664;9.166;2022-11-09T08:51:45;101575.11;;;11.13;99.74
18755;BME280;35061;47.664;9.166;2022-11-09T08:54:13;101580.17;;;11.19;99.43
18755;BME280;35061;47.664;9.166;2022-11-09T08:56:41;101573.30;;;11.25;99.43
18755;BME280;35061;47.664;9.166;2022-11-09T08:59:09;101565.66;;;11.31;99.31
18755;BME280;35061;47.664;9.166;2022-11-09T09:01:36;101558.79;;;11.38;99.03
18755;BME280;35061;47.664;9.166;2022-11-09T09:04:04;101555.29;;;11.43;98.73
18755;BME280;35061;47.664;9.166;2022-11-09T09:06:32;101552.58;;;11.49;98.51
18755;BME280;35061;47.664;9.166;2022-11-09T09:08:59;101551.43;;;11.56;98.17
18755;BME280;35061;47.664;9.166;2022-11-09T09:11:27;101556.20;;;11.59;97.94
18755;BME280;35061;47.664;9.166;2022-11-09T09:13:55;101550.29;;;11.63;97.83
18755;BME280;35061;47.664;9.166;2022-11-09T09:16:23;101562.71;;;11.69;97.55
18755;BME280;35061;47.664;9.166;2022-11-09T09:18:50;101562.84;;;11.75;97.30
18755;BME280;35061;47.664;9.166;2022-11-09T09:21:18;101559.77;;;11.78;97.24
18755;BME280;35061;47.664;9.166;2022-11-09T09:23:47;101558.04;;;11.81;96.85
18755;BME280;35061;47.664;9.166;2022-11-09T09:26:16;101560.72;;;11.84;96.91
18755;BME280;35061;47.664;9.166;2022-11-09T09:28:44;101551.63;;;11.86;96.55
18755;BME280;35061;47.664;9.166;2022-11-09T09:31:11;101535.02;;;11.90;96.53
18755;BME280;35061;47.664;9.166;2022-11-09T09:33:43;101539.01;;;11.93;96.26
18755;BME280;35061;47.664;9.166;2022-11-09T09:36:17;101544.07;;;11.98;95.94
18755;BME280;35061;47.664;9.166;2022-11-09T09:38:45;101546.16;;;11.97;95.72
18755;BME280;35061;47.664;9.166;2022-11-09T09:46:47;101544.37;;;12.09;95.37
18755;BME280;35061;47.664;9.166;2022-11-09T09:49:23;101550.22;;;12.15;95.06
18755;BME280;35061;47.664;9.166;2022-11-09T09:52:19;101543.55;;;12.18;94.96
18755;BME280;35061;47.664;9.166;2022-11-09T09:55:24;101539.70;;;12.21;94.47
18755;BME280;35061;47.664;9.166;2022-11-09T09:57:57;101533.77;;;12.25;94.65
18755;BME280;35061;47.664;9.166;2022-11-09T10:00:27;101540.12;;;12.29;94.25
18755;BME280;35061;47.664;9.166;2022-11-09T10:02:55;101545.19;;;12.34;94.39
18755;BME280;35061;47.664;9.166;2022-11-09T10:05:29;101542.93;;;12.38;94.24
18755;BME280;35061;47.664;9.166;2022-11-09T10:08:12;101541.95;;;12.41;94.02
18755;BME280;35061;47.664;9.166;2022-11-09T10:10:54;101541.46;;;12.43;93.58
18755;BME280;35061;47.664;9.166;2022-11-09T10:13:51;101530.77;;;12.44;93.53
18755;BME280;35061;47.664;9.166;2022-11-09T10:25:14;101515.16;;;12.60;92.40
18755;BME280;35061;47.664;9.166;2022-11-09T10:28:13;101504.77;;;12.62;92.27
18755;BME280;35061;47.664;9.166;2022-11-09T10:30:41;101512.09;;;12.63;91.67
18755;BME280;35061;47.664;9.166;2022-11-09T10:33:19;101525.96;;;12.65;92.21
18755;BME280;35061;47.664;9.166;2022-11-09T10:36:50;101532.83;;;12.67;92.13
18755;BME280;35061;47.664;9.166;2022-11-09T10:38:59;101532.63;;;12.71;91.91
18755;BME280;35061;47.664;9.166;2022-11-09T10:41:32;101525.89;;;12.74;91.71
18755;BME280;35061;47.664;9.166;2022-11-09T10:44:00;101524.13;;;12.77;91.63
18755;BME280;35061;47.664;9.166;2022-11-09T10:46:28;101527.59;;;12.81;91.84
18755;BME280;35061;47.664;9.166;2022-11-09T10:48:56;101530.27;;;12.84;91.45
18755;BME280;35061;47.664;9.166;2022-11-09T10:51:41;101531.87;;;12.86;91.14
18755;BME280;35061;47.664;9.166;2022-11-09T10:54:20;101524.52;;;12.84;90.21
18755;BME280;35061;47.664;9.166;2022-11-09T10:56:51;101522.13;;;12.83;90.71
18755;BME280;35061;47.664;9.166;2022-11-09T10:59:45;101525.30;;;12.85;90.61
18755;BME280;35061;47.664;9.166;2022-11-09T11:07:45;101517.62;;;12.91;90.32
18755;BME280;35061;47.664;9.166;2022-11-09T11:15:39;101520.17;;;12.89;89.94
18755;BME280;35061;47.664;9.166;2022-11-09T11:18:23;101517.29;;;12.89;90.01
18755;BME280;35061;47.664;9.166;2022-11-09T11:21:17;101511.87;;;12.91;89.88
18755;BME280;35061;47.664;9.166;2022-11-09T11:24:12;101511.37;;;12.93;89.84
18755;BME280;35061;47.664;9.166;2022-11-09T11:26:57;101517.23;;;12.98;90.20
18755;BME280;35061;47.664;9.166;2022-11-09T11:29:54;101512.45;;;12.95;89.50
18755;BME280;35061;47.664;9.166;2022-11-09T11:32:22;101515.66;;;12.97;90.10
18755;BME280;35061;47.664;9.166;2022-11-09T11:34:50;101505.72;;;12.98;90.28
18755;BME280;35061;47.664;9.166;2022-11-09T11:40:09;101498.88;;;13.11;90.02
18755;BME280;35061;47.664;9.166;2022-11-09T11:48:39;101503.85;;;13.25;89.32
18755;BME280;35061;47.664;9.166;2022-11-09T11:51:23;101494.44;;;13.25;88.53
18755;BME280;35061;47.664;9.166;2022-11-09T11:56:35;101490.45;;;13.22;88.62
18755;BME280;35061;47.664;9.166;2022-11-09T12:08:24;101470.23;;;13.02;88.26
18755;BME280;35061;47.664;9.166;2022-11-09T12:14:05;101451.70;;;13.03;88.28
18755;BME280;35061;47.664;9.166;2022-11-09T12:16:43;101449.11;;;13.05;88.20
18755;BME280;35061;47.664;9.166;2022-11-09T12:19:38;101439.99;;;13.06;88.11
18755;BME280;35061;47.664;9.166;2022-11-09T12:28:02;101435.05;;;13.07;88.02
18755;BME280;35061;47.664;9.166;2022-11-09T12:30:44;101426.91;;;13.05;87.69
18755;BME280;35061;47.664;9.166;2022-11-09T12:33:19;101439.79;;;13.10;87.99
18755;BME280;35061;47.664;9.166;2022-11-09T12:35:55;101442.96;;;13.12;88.14
18755;BME280;35061;47.664;9.166;2022-11-09T12:38:32;101452.58;;;13.09;88.18
18755;BME280;35061;47.664;9.166;2022-11-09T12:41:12;101450.19;;;13.07;88.28
18755;BME280;35061;47.664;9.166;2022-11-09T12:44:14;101441.79;;;13.04;88.08
18755;BME280;35061;47.664;9.166;2022-11-09T12:47:14;101437.02;;;13.01;88.59
18755;BME280;35061;47.664;9.166;2022-11-09T12:49:45;101438.42;;;13.05;88.83
18755;BME280;35061;47.664;9.166;2022-11-09T12:52:15;101438.13;;;13.03;88.93
18755;BME280;35061;47.664;9.166;2022-11-09T12:54:47;101436.33;;;13.06;89.11
18755;BME280;35061;47.664;9.166;2022-11-09T12:57:25;101424.33;;;13.07;89.14
18755;BME280;35061;47.664;9.166;2022-11-09T12:59:58;101432.77;;;13.11;89.35
18755;BME280;35061;47.664;9.166;2022-11-09T13:02:29;101434.33;;;13.12;89.73
18755;BME280;35061;47.664;9.166;2022-11-09T13:05:01;101437.80;;;13.16;89.78
18755;BME280;35061;47.664;9.166;2022-11-09T13:10:04;101428.09;;;13.14;90.01
18755;BME280;35061;47.664;9.166;2022-11-09T13:12:39;101433.32;;;13.15;90.13
18755;BME280;35061;47.664;9.166;2022-11-09T13:15:28;101436.72;;;13.14;89.94
18755;BME280;35061;47.664;9.166;2022-11-09T13:23:38;101440.09;;;13.12;90.07
18755;BME280;35061;47.664;9.166;2022-11-09T13:35:02;101447.70;;;13.00;90.26
18755;BME280;35061;47.664;9.166;2022-11-09T13:45:44;101436.03;;;12.89;89.88
18755;BME280;35061;47.664;9.166;2022-11-09T13:50:56;101435.54;;;12.90;90.31
18755;BME280;35061;47.664;9.166;2022-11-09T13:53:49;101435.54;;;12.90;90.39
18755;BME280;35061;47.664;9.166;2022-11-09T13:56:36;101445.94;;;12.88;90.10
18755;BME280;35061;47.664;9.166;2022-11-09T13:59:17;101451.11;;;12.83;90.42
18755;BME280;35061;47.664;9.166;2022-11-09T14:18:20;101479.59;;;12.57;91.02
18755;BME280;35061;47.664;9.166;2022-11-09T14:23:48;101486.00;;;12.52;91.61
18755;BME280;35061;47.664;9.166;2022-11-09T14:26:19;101490.58;;;12.44;91.60
18755;BME280;35061;47.664;9.166;2022-11-09T14:28:47;101484.36;;;12.36;91.83
18755;BME280;35061;47.664;9.166;2022-11-09T14:34:04;101496.27;;;12.28;92.25
18755;BME280;35061;47.664;9.166;2022-11-09T14:36:33;101494.86;;;12.24;92.84
18755;BME280;35061;47.664;9.166;2022-11-09T14:39:05;101496.13;;;12.23;92.93
18755;BME280;35061;47.664;9.166;2022-11-09T14:41:43;101489.46;;;12.17;93.49
18755;BME280;35061;47.664;9.166;2022-11-09T14:44:15;101499.05;;;12.13;93.47
18755;BME280;35061;47.664;9.166;2022-11-09T14:46:51;101496.37;;;12.10;94.03
18755;BME280;35061;47.664;9.166;2022-11-09T14:49:20;101499.11;;;12.04;94.22
18755;BME280;35061;47.664;9.166;2022-11-09T14:51:49;101505.00;;;12.00;94.12
18755;BME280;35061;47.664;9.166;2022-11-09T14:54:22;101519.05;;;11.98;93.95
18755;BME280;35061;47.664;9.166;2022-11-09T14:56:51;101508.20;;;11.93;93.75
18755;BME280;35061;47.664;9.166;2022-11-09T14:59:31;101513.23;;;11.83;93.72
18755;BME280;35061;47.664;9.166;2022-11-09T15:02:06;101514.22;;;11.80;93.97
18755;BME280;35061;47.664;9.166;2022-11-09T15:04:57;101516.45;;;11.76;93.98